createdAt,value
2019-02-19T00:01:45.409Z,10.47
2019-02-19T00:04:14.541Z,9.90
2019-02-19T00:06:43.580Z,10.20
2019-02-19T00:09:12.129Z,10.80
2019-02-19T00:11:41.228Z,11.23
2019-02-19T00:14:10.296Z,10.70
2019-02-19T00:16:39.330Z,11.13
2019-02-19T00:19:08.260Z,10.70
2019-02-19T00:21:37.345Z,9.77
2019-02-19T00:24:06.398Z,11.33
2019-02-19T00:26:35.421Z,10.83
2019-02-19T00:29:04.389Z,11.93
2019-02-19T00:31:33.365Z,10.30
2019-02-19T00:34:02.286Z,10.53
2019-02-19T00:36:31.634Z,11.57
2019-02-19T00:39:00.592Z,11.93
2019-02-19T00:41:29.677Z,10.87
2019-02-19T00:43:58.722Z,11.07
2019-02-19T00:46:27.261Z,11.00
2019-02-19T00:48:56.337Z,11.00
2019-02-19T00:51:25.396Z,11.47
2019-02-19T00:53:54.448Z,10.60
2019-02-19T00:56:23.507Z,10.50
2019-02-19T00:58:52.583Z,11.23
2019-02-19T01:01:21.554Z,10.47
2019-02-19T01:03:50.509Z,11.20
2019-02-19T01:06:19.479Z,10.63
2019-02-19T01:08:48.031Z,10.20
2019-02-19T01:11:16.884Z,10.47
2019-02-19T01:13:46.201Z,9.63
2019-02-19T01:16:15.151Z,9.97
2019-02-19T01:18:44.213Z,10.30
2019-02-19T01:21:13.168Z,9.40
2019-02-19T01:23:42.172Z,10.23
2019-02-19T01:26:11.174Z,10.60
2019-02-19T01:28:40.260Z,10.50
2019-02-19T01:31:09.304Z,10.90
2019-02-19T01:33:39.428Z,10.00
2019-02-19T01:36:08.378Z,10.97
2019-02-19T01:38:37.327Z,9.70
2019-02-19T01:41:06.219Z,10.20
2019-02-19T01:43:35.285Z,10.43
2019-02-19T01:46:04.244Z,9.60
2019-02-19T01:48:33.308Z,10.13
2019-02-19T01:51:02.345Z,10.87
2019-02-19T01:53:30.990Z,9.80
2019-02-19T01:56:00.039Z,9.80
2019-02-19T01:58:28.952Z,11.43
2019-02-19T02:00:57.989Z,9.87
2019-02-19T02:03:26.925Z,9.57
2019-02-19T02:05:55.964Z,9.50
2019-02-19T02:08:24.537Z,9.30
2019-02-19T02:10:53.825Z,9.37
2019-02-19T02:13:22.836Z,10.07
2019-02-19T02:15:51.820Z,8.87
2019-02-19T02:18:20.868Z,9.10
2019-02-19T02:20:49.892Z,9.50
2019-02-19T02:23:18.969Z,10.30
2019-02-19T02:25:47.772Z,9.67
2019-02-19T02:28:16.803Z,9.90
2019-02-19T02:30:45.777Z,11.27
2019-02-19T02:33:14.761Z,12.03
2019-02-19T02:35:44.049Z,13.80
2019-02-19T02:38:13.090Z,11.07
2019-02-19T02:40:42.101Z,10.63
2019-02-19T02:43:10.990Z,10.80
2019-02-19T02:45:40.011Z,11.00
2019-02-19T02:48:08.542Z,11.73
2019-02-19T02:50:37.509Z,10.87
2019-02-19T02:53:06.520Z,11.30
2019-02-19T02:55:35.447Z,12.87
2019-02-19T02:58:04.432Z,10.77
2019-02-19T03:00:33.437Z,12.30
2019-02-19T03:03:02.320Z,11.37
2019-02-19T03:05:31.357Z,11.97
2019-02-19T03:08:03.745Z,13.20
2019-02-19T03:10:32.756Z,11.57
2019-02-19T03:13:01.208Z,11.67
2019-02-19T03:15:30.257Z,12.03
2019-02-19T03:17:59.200Z,12.67
2019-02-19T03:20:28.076Z,12.17
2019-02-19T03:22:56.648Z,12.53
2019-02-19T03:25:25.175Z,11.00
2019-02-19T03:27:54.156Z,12.87
2019-02-19T03:30:23.791Z,11.60
2019-02-19T03:32:52.761Z,11.13
2019-02-19T03:35:21.720Z,13.67
2019-02-19T03:37:50.794Z,9.23
2019-02-19T03:40:19.801Z,6.57
2019-02-19T03:42:48.829Z,4.43
2019-02-19T03:45:17.721Z,2.63
2019-02-19T03:47:46.960Z,5.03
2019-02-19T03:50:15.854Z,4.93
2019-02-19T03:52:44.804Z,4.97
2019-02-19T03:55:13.798Z,3.63
2019-02-19T03:57:42.663Z,7.30
2019-02-19T04:00:11.570Z,7.60
2019-02-19T04:02:40.528Z,8.70
2019-02-19T04:05:09.589Z,4.17
2019-02-19T04:07:38.561Z,5.30
2019-02-19T04:10:07.776Z,3.97
2019-02-19T04:12:36.729Z,9.10
2019-02-19T04:15:06.074Z,9.27
2019-02-19T04:17:35.106Z,12.50
2019-02-19T04:20:05.221Z,13.70
2019-02-19T04:22:34.235Z,13.07
2019-02-19T04:25:03.252Z,12.27
2019-02-19T04:27:32.181Z,12.80
2019-02-19T04:30:01.284Z,12.60
2019-02-19T04:32:30.164Z,12.37
2019-02-19T04:34:59.053Z,10.73
2019-02-19T04:37:29.884Z,4.80
2019-02-19T04:39:58.870Z,5.93
2019-02-19T04:42:27.826Z,5.60
2019-02-19T04:44:56.808Z,12.43
2019-02-19T04:47:25.697Z,11.37
2019-02-19T04:49:54.744Z,11.33
2019-02-19T04:52:23.697Z,12.57
2019-02-19T04:54:52.717Z,12.20
2019-02-19T04:57:21.872Z,12.40
2019-02-19T04:59:50.866Z,11.60
2019-02-19T05:02:19.939Z,11.60
2019-02-19T05:04:48.988Z,12.33
2019-02-19T05:07:17.502Z,11.83
2019-02-19T05:09:46.527Z,12.20
2019-02-19T05:12:15.418Z,10.80
2019-02-19T05:14:44.376Z,12.80
2019-02-19T05:17:13.428Z,11.37
2019-02-19T05:19:42.677Z,11.40
2019-02-19T05:22:11.716Z,12.20
2019-02-19T05:24:41.029Z,12.73
2019-02-19T05:27:09.924Z,11.17
2019-02-19T05:29:40.041Z,11.10
2019-02-19T05:32:08.946Z,11.30
2019-02-19T05:34:38.026Z,10.70
2019-02-19T05:37:06.990Z,10.40
2019-02-19T05:39:36.038Z,9.93
2019-02-19T05:42:05.004Z,10.83
2019-02-19T05:44:34.046Z,11.03
2019-02-19T05:47:03.019Z,10.60
2019-02-19T05:49:31.932Z,10.10
2019-02-19T05:52:00.907Z,10.23
2019-02-19T05:54:29.777Z,11.03
2019-02-19T05:56:58.786Z,11.23
2019-02-19T05:59:27.759Z,12.07
2019-02-19T06:01:56.808Z,11.17
2019-02-19T06:04:25.853Z,11.07
2019-02-19T06:06:54.843Z,11.27
2019-02-19T06:09:23.837Z,10.90
2019-02-19T06:11:52.929Z,10.50
2019-02-19T06:14:21.894Z,8.60
2019-02-19T06:16:58.244Z,6.77
2019-02-19T06:19:21.598Z,6.90
2019-02-19T06:21:50.536Z,8.33
2019-02-19T06:24:19.541Z,7.30
2019-02-19T06:26:48.529Z,5.80
2019-02-19T06:29:17.337Z,3.67
2019-02-19T06:31:46.567Z,4.63
2019-02-19T06:34:15.721Z,2.93
2019-02-19T06:36:44.464Z,5.57
2019-02-19T06:39:13.421Z,4.50
2019-02-19T06:41:42.352Z,5.10
2019-02-19T06:44:11.737Z,4.90
2019-02-19T06:46:40.693Z,3.53
2019-02-19T06:49:09.628Z,7.93
2019-02-19T06:51:38.616Z,9.33
2019-02-19T06:54:07.641Z,8.83
2019-02-19T06:56:36.675Z,8.60
2019-02-19T06:59:05.203Z,8.47
2019-02-19T07:01:56.348Z,7.27
2019-02-19T07:04:29.227Z,7.17
2019-02-19T07:06:58.330Z,5.40
2019-02-19T07:09:27.328Z,8.23
2019-02-19T07:11:56.410Z,6.60
2019-02-19T07:14:25.441Z,8.30
2019-02-19T07:16:54.528Z,5.90
2019-02-19T07:19:23.505Z,4.10
2019-02-19T07:21:52.386Z,4.73
2019-02-19T07:24:21.329Z,5.47
2019-02-19T07:26:50.320Z,4.97
2019-02-19T07:29:19.249Z,4.53
2019-02-19T07:31:48.336Z,4.67
2019-02-19T07:34:17.375Z,6.07
2019-02-19T07:36:46.461Z,9.50
2019-02-19T07:39:15.453Z,9.90
2019-02-19T07:41:44.317Z,10.40
2019-02-19T07:44:14.260Z,9.23
2019-02-19T07:46:43.273Z,9.97
2019-02-19T07:49:12.238Z,8.83
2019-02-19T07:51:42.684Z,8.67
2019-02-19T07:54:12.104Z,9.57
2019-02-19T07:56:41.124Z,8.57
2019-02-19T07:59:10.323Z,7.93
2019-02-19T08:01:39.304Z,8.90
2019-02-19T08:04:08.268Z,7.50
2019-02-19T08:06:36.792Z,7.50
2019-02-19T08:09:07.058Z,6.10
2019-02-19T08:11:36.060Z,6.00
2019-02-19T08:14:05.036Z,6.00
2019-02-19T08:16:33.996Z,5.73
2019-02-19T08:19:02.971Z,5.60
2019-02-19T08:21:31.984Z,5.83
2019-02-19T08:24:00.981Z,9.20
2019-02-19T08:26:29.958Z,9.47
2019-02-19T08:29:11.337Z,8.80
2019-02-19T08:31:29.830Z,9.57
2019-02-19T08:33:58.828Z,9.50
2019-02-19T08:36:29.595Z,10.63
2019-02-19T08:38:58.433Z,10.27
2019-02-19T08:41:27.402Z,9.70
2019-02-19T08:43:56.416Z,9.77
2019-02-19T08:46:25.380Z,9.87
2019-02-19T08:48:54.335Z,8.80
2019-02-19T08:51:24.262Z,9.13
2019-02-19T08:53:53.392Z,9.70
2019-02-19T08:56:22.444Z,9.53
2019-02-19T08:58:50.880Z,7.60
2019-02-19T09:01:19.862Z,7.00
2019-02-19T09:03:49.324Z,9.70
2019-02-19T09:06:17.773Z,9.10
2019-02-19T09:08:46.463Z,10.07
2019-02-19T09:11:15.361Z,9.57
2019-02-19T09:13:44.313Z,9.47
2019-02-19T09:16:13.368Z,9.67
2019-02-19T09:18:42.429Z,10.07
2019-02-19T09:21:11.372Z,9.90
2019-02-19T09:23:42.246Z,9.80
2019-02-19T09:26:11.140Z,9.60
2019-02-19T09:28:41.776Z,9.30
2019-02-19T09:31:10.809Z,10.53
2019-02-19T09:33:39.799Z,9.63
2019-02-19T09:36:08.829Z,10.20
2019-02-19T09:38:37.284Z,10.30
2019-02-19T09:41:06.285Z,10.17
2019-02-19T09:43:35.779Z,9.93
2019-02-19T09:46:05.012Z,9.60
2019-02-19T09:48:34.104Z,10.50
2019-02-19T09:51:02.772Z,9.37
2019-02-19T09:53:31.670Z,9.13
2019-02-19T09:56:00.772Z,4.80
2019-02-19T09:58:36.080Z,8.10
2019-02-19T10:01:05.289Z,7.00
2019-02-19T10:03:39.597Z,11.10
2019-02-19T10:06:08.863Z,11.60
2019-02-19T10:08:37.873Z,12.10
2019-02-19T10:11:06.944Z,11.07
2019-02-19T10:13:35.988Z,10.17
2019-02-19T10:16:05.067Z,10.30
2019-02-19T10:18:34.036Z,9.93
2019-02-19T10:21:02.925Z,10.53
2019-02-19T10:23:31.992Z,10.07
2019-02-19T10:26:01.068Z,10.97
2019-02-19T10:28:29.997Z,9.60
2019-02-19T10:30:58.964Z,10.60
2019-02-19T10:33:27.941Z,10.60
2019-02-19T10:35:56.872Z,9.93
2019-02-19T10:38:25.877Z,10.07
2019-02-19T10:40:54.900Z,9.10
2019-02-19T10:43:24.015Z,9.23
2019-02-19T10:45:52.932Z,10.77
2019-02-19T10:48:21.964Z,14.50
2019-02-19T10:50:51.100Z,12.17
2019-02-19T10:53:20.134Z,10.63
2019-02-19T10:55:49.224Z,10.40
2019-02-19T10:58:22.905Z,9.50
2019-02-19T11:00:48.926Z,10.77
2019-02-19T11:03:17.895Z,9.30
2019-02-19T11:05:46.976Z,9.83
2019-02-19T11:08:16.080Z,9.73
2019-02-19T11:10:45.349Z,8.67
2019-02-19T11:13:14.396Z,10.80
2019-02-19T11:15:43.482Z,11.10
2019-02-19T11:18:12.497Z,11.50
2019-02-19T11:20:41.568Z,10.17
2019-02-19T11:23:10.532Z,10.60
2019-02-19T11:25:39.516Z,10.50
2019-02-19T11:28:08.530Z,10.30
2019-02-19T11:30:37.578Z,10.70
2019-02-19T11:33:06.497Z,10.43
2019-02-19T11:35:35.637Z,8.50
2019-02-19T11:38:04.618Z,9.50
2019-02-19T11:40:33.669Z,12.03
2019-02-19T11:43:02.893Z,7.27
2019-02-19T11:45:31.937Z,6.17
2019-02-19T11:48:01.392Z,5.80
2019-02-19T11:50:30.348Z,7.17
2019-02-19T11:52:59.464Z,6.57
2019-02-19T11:55:28.470Z,7.40
2019-02-19T11:57:57.462Z,7.13
2019-02-19T12:00:33.140Z,6.73
2019-02-19T12:03:02.091Z,6.90
2019-02-19T12:05:31.114Z,6.97
2019-02-19T12:07:59.620Z,6.80
2019-02-19T12:10:28.692Z,7.10
2019-02-19T12:12:57.729Z,8.03
2019-02-19T12:15:34.668Z,6.93
2019-02-19T12:17:57.318Z,6.30
2019-02-19T12:20:26.468Z,7.67
2019-02-19T12:22:55.537Z,6.63
2019-02-19T12:25:24.552Z,6.00
2019-02-19T12:27:53.584Z,6.30
2019-02-19T12:30:22.713Z,5.23
2019-02-19T12:32:53.191Z,6.40
2019-02-19T12:35:22.161Z,5.83
2019-02-19T12:37:51.360Z,6.53
2019-02-19T12:40:20.369Z,6.30
2019-02-19T12:42:49.328Z,5.93
2019-02-19T12:45:18.356Z,6.33
2019-02-19T12:47:47.332Z,6.10
2019-02-19T12:50:16.459Z,6.03
2019-02-19T12:52:45.476Z,5.20
2019-02-19T12:55:14.742Z,6.70
2019-02-19T12:57:45.306Z,6.10
2019-02-19T13:00:15.061Z,6.50
2019-02-19T13:02:44.288Z,6.97
2019-02-19T13:05:13.780Z,7.83
2019-02-19T13:07:42.730Z,6.90
2019-02-19T13:10:11.745Z,6.80
2019-02-19T13:12:40.744Z,6.63
2019-02-19T13:15:11.871Z,6.67
2019-02-19T13:17:40.896Z,7.43
2019-02-19T13:20:11.666Z,7.23
2019-02-19T13:22:41.268Z,7.80
2019-02-19T13:25:10.584Z,7.70
2019-02-19T13:27:39.519Z,7.17
2019-02-19T13:30:11.054Z,7.70
2019-02-19T13:32:40.014Z,7.23
2019-02-19T13:35:09.759Z,6.80
2019-02-19T13:37:38.719Z,7.97
2019-02-19T13:40:10.233Z,7.63
2019-02-19T13:42:39.261Z,8.60
2019-02-19T13:45:09.700Z,8.07
2019-02-19T13:47:38.744Z,8.70
2019-02-19T13:50:11.261Z,8.20
2019-02-19T13:52:58.341Z,7.60
2019-02-19T13:55:31.062Z,8.67
2019-02-19T13:58:00.019Z,8.70
2019-02-19T14:00:29.947Z,8.47
2019-02-19T14:02:59.292Z,9.00
2019-02-19T14:05:28.678Z,9.60
2019-02-19T14:07:57.579Z,8.90
2019-02-19T14:10:26.571Z,9.27
2019-02-19T14:12:55.626Z,9.30
2019-02-19T14:15:46.477Z,8.73
2019-02-19T14:18:19.478Z,8.57
2019-02-19T14:21:02.573Z,9.80
2019-02-19T14:23:53.340Z,9.57
2019-02-19T14:26:56.561Z,8.63
2019-02-19T14:29:43.395Z,9.30
2019-02-19T14:32:32.429Z,9.70
2019-02-19T14:35:15.961Z,9.10
2019-02-19T14:38:15.951Z,8.77
2019-02-19T14:41:13.088Z,8.43
2019-02-19T14:44:04.343Z,8.90
2019-02-19T14:47:00.883Z,8.50
2019-02-19T14:49:51.685Z,9.27
2019-02-19T14:52:45.781Z,9.47
2019-02-19T14:55:33.504Z,8.87
2019-02-19T14:58:33.360Z,9.27
2019-02-19T15:01:20.127Z,8.07
2019-02-19T15:03:59.316Z,8.90
2019-02-19T15:06:50.142Z,9.10
2019-02-19T15:09:34.490Z,10.30
2019-02-19T15:12:28.617Z,9.43
2019-02-19T15:15:16.240Z,10.10
2019-02-19T15:18:03.421Z,9.93
2019-02-19T15:20:48.856Z,9.83
2019-02-19T15:23:35.369Z,10.17
2019-02-19T15:26:32.573Z,9.47
2019-02-19T15:29:10.212Z,8.77
2019-02-19T15:31:52.260Z,10.03
2019-02-19T15:34:34.829Z,9.10
2019-02-19T15:37:31.782Z,10.00
2019-02-19T15:40:18.720Z,10.57
2019-02-19T15:43:25.204Z,10.60
2019-02-19T15:46:12.124Z,9.80
2019-02-19T15:49:00.192Z,10.23
2019-02-19T15:51:48.197Z,11.07
2019-02-19T15:54:34.746Z,10.40
2019-02-19T15:57:28.890Z,11.40
2019-02-19T16:00:16.843Z,11.57
2019-02-19T16:03:00.132Z,10.20
2019-02-19T16:05:53.264Z,11.40
2019-02-19T16:08:33.069Z,10.47
2019-02-19T16:11:26.925Z,11.30
2019-02-19T16:14:16.626Z,11.13
2019-02-19T16:17:09.768Z,11.87
2019-02-19T16:20:03.357Z,11.43
2019-02-19T16:23:06.048Z,11.10
2019-02-19T16:25:52.901Z,11.47
2019-02-19T16:28:40.049Z,10.90
2019-02-19T16:31:16.051Z,11.07
2019-02-19T16:34:07.142Z,10.47
2019-02-19T16:36:44.229Z,10.50
2019-02-19T16:39:31.310Z,10.30
2019-02-19T16:42:07.688Z,11.30
2019-02-19T16:44:49.085Z,11.97
2019-02-19T16:47:30.248Z,9.50
2019-02-19T16:50:21.156Z,10.93
2019-02-19T16:53:18.287Z,11.07
2019-02-19T16:55:55.065Z,11.17
2019-02-19T16:58:35.802Z,10.87
2019-02-19T17:01:27.289Z,11.87
2019-02-19T17:04:06.217Z,11.10
2019-02-19T17:06:42.429Z,11.87
2019-02-19T17:09:22.550Z,12.07
2019-02-19T17:11:59.982Z,12.00
2019-02-19T17:14:48.007Z,11.93
2019-02-19T17:17:34.889Z,12.37
2019-02-19T17:20:29.249Z,11.93
2019-02-19T17:23:05.835Z,11.60
2019-02-19T17:25:52.997Z,13.50
2019-02-19T17:28:53.285Z,12.37
2019-02-19T17:31:41.343Z,12.27
2019-02-19T17:34:20.656Z,11.60
2019-02-19T17:37:20.750Z,11.40
2019-02-19T17:40:02.570Z,11.90
2019-02-19T17:42:53.720Z,13.63
2019-02-19T17:45:30.384Z,11.23
2019-02-19T17:48:27.422Z,11.20
2019-02-19T17:51:21.691Z,11.03
2019-02-19T17:54:00.212Z,10.97
2019-02-19T17:56:47.002Z,11.40
2019-02-19T17:59:31.664Z,11.07
2019-02-19T18:02:11.456Z,11.10
2019-02-19T18:04:46.956Z,10.83
2019-02-19T18:07:38.112Z,11.10
2019-02-19T18:10:28.564Z,11.80
2019-02-19T18:13:16.737Z,10.90
2019-02-19T18:15:59.437Z,11.23
2019-02-19T18:18:35.422Z,11.50
2019-02-19T18:21:04.487Z,11.90
2019-02-19T18:23:33.557Z,12.43
2019-02-19T18:26:02.641Z,11.53
2019-02-19T18:28:32.356Z,10.67
2019-02-19T18:31:01.348Z,10.63
2019-02-19T18:33:30.429Z,11.20
2019-02-19T18:35:59.434Z,12.73
2019-02-19T18:38:28.544Z,12.20
2019-02-19T18:40:57.490Z,12.07
2019-02-19T18:43:26.496Z,12.20
2019-02-19T18:45:55.569Z,11.90
2019-02-19T18:48:24.558Z,11.10
2019-02-19T18:50:58.450Z,11.80
2019-02-19T18:53:24.425Z,12.03
2019-02-19T18:55:53.502Z,11.70
2019-02-19T18:58:22.621Z,11.90
2019-02-19T19:00:51.617Z,10.60
2019-02-19T19:03:20.643Z,10.70
2019-02-19T19:05:49.787Z,11.30
2019-02-19T19:08:18.899Z,9.00
2019-02-19T19:10:47.902Z,8.70
2019-02-19T19:13:16.521Z,8.30
2019-02-19T19:15:45.789Z,8.07
2019-02-19T19:18:14.791Z,7.67
2019-02-19T19:20:43.873Z,7.77
2019-02-19T19:23:12.860Z,6.73
2019-02-19T19:25:42.922Z,7.27
2019-02-19T19:28:12.103Z,5.60
2019-02-19T19:30:41.232Z,5.47
2019-02-19T19:33:10.358Z,5.47
2019-02-19T19:35:39.466Z,5.50
2019-02-19T19:38:08.494Z,6.13
2019-02-19T19:40:37.609Z,6.33
2019-02-19T19:43:06.764Z,5.43
2019-02-19T19:45:36.068Z,5.23
2019-02-19T19:48:05.303Z,5.80
2019-02-19T19:50:34.365Z,5.80
2019-02-19T19:53:03.529Z,6.20
2019-02-19T19:55:32.564Z,6.00
2019-02-19T19:58:01.612Z,6.00
2019-02-19T20:00:30.794Z,5.73
2019-02-19T20:03:00.010Z,5.80
2019-02-19T20:05:29.076Z,6.07
2019-02-19T20:07:58.140Z,6.50
2019-02-19T20:10:27.454Z,6.50
2019-02-19T20:12:56.457Z,5.93
2019-02-19T20:15:25.729Z,6.87
2019-02-19T20:17:54.904Z,6.23
2019-02-19T20:20:23.918Z,6.03
2019-02-19T20:22:52.982Z,5.87
2019-02-19T20:25:22.088Z,6.83
2019-02-19T20:27:52.105Z,6.37
2019-02-19T20:30:21.161Z,7.00
2019-02-19T20:32:50.222Z,7.03
2019-02-19T20:35:19.409Z,15.40
2019-02-19T20:37:54.026Z,9.20
2019-02-19T20:40:19.253Z,8.67
2019-02-19T20:42:48.343Z,8.43
2019-02-19T20:45:17.608Z,8.10
2019-02-19T20:47:46.707Z,7.23
2019-02-19T20:50:15.824Z,6.63
2019-02-19T20:52:44.921Z,7.00
2019-02-19T20:55:13.999Z,6.93
2019-02-19T20:57:44.998Z,7.90
2019-02-19T21:00:15.521Z,6.93
2019-02-19T21:02:45.548Z,7.47
2019-02-19T21:05:14.597Z,9.10
2019-02-19T21:07:43.594Z,8.70
2019-02-19T21:10:14.471Z,8.30
2019-02-19T21:12:43.572Z,7.60
2019-02-19T21:15:13.817Z,7.17
2019-02-19T21:17:44.418Z,8.13
2019-02-19T21:20:15.001Z,7.50
2019-02-19T21:22:43.587Z,7.63
2019-02-19T21:25:12.783Z,7.53
2019-02-19T21:27:41.938Z,8.43
2019-02-19T21:30:11.608Z,7.33
2019-02-19T21:32:40.699Z,7.90
2019-02-19T21:35:09.933Z,8.20
2019-02-19T21:37:39.188Z,8.03
2019-02-19T21:40:09.768Z,8.70
2019-02-19T21:42:38.841Z,9.00
2019-02-19T21:45:08.380Z,7.70
2019-02-19T21:47:37.582Z,8.67
2019-02-19T21:50:06.753Z,8.17
2019-02-19T21:52:35.791Z,9.10
2019-02-19T21:55:04.877Z,9.40
2019-02-19T21:57:33.945Z,9.23
2019-02-19T22:00:02.957Z,9.03
2019-02-19T22:02:31.958Z,8.20
2019-02-19T22:05:01.117Z,9.37
2019-02-19T22:07:30.365Z,8.93
2019-02-19T22:09:59.371Z,10.80
2019-02-19T22:12:27.932Z,10.60
2019-02-19T22:14:57.005Z,10.30
2019-02-19T22:17:25.980Z,9.57
2019-02-19T22:20:02.859Z,9.30
2019-02-19T22:22:27.997Z,8.60
2019-02-19T22:24:57.137Z,10.27
2019-02-19T22:27:26.123Z,10.37
2019-02-19T22:29:55.195Z,8.63
2019-02-19T22:32:24.556Z,9.73
2019-02-19T22:34:53.607Z,9.70
2019-02-19T22:37:22.610Z,9.30
2019-02-19T22:39:51.722Z,9.90
2019-02-19T22:42:20.887Z,10.93
2019-02-19T22:44:49.934Z,9.20
2019-02-19T22:47:19.007Z,9.97
2019-02-19T22:49:48.007Z,11.63
2019-02-19T22:52:17.157Z,10.37
2019-02-19T22:55:04.282Z,11.17
2019-02-19T22:57:33.788Z,11.07
2019-02-19T23:00:04.400Z,12.17
2019-02-19T23:02:33.625Z,10.90
2019-02-19T23:05:02.723Z,10.93
2019-02-19T23:07:31.688Z,12.60
2019-02-19T23:10:00.733Z,11.60
2019-02-19T23:12:29.832Z,10.10
2019-02-19T23:14:58.943Z,11.40
2019-02-19T23:17:27.993Z,9.80
2019-02-19T23:19:57.215Z,9.30
2019-02-19T23:22:26.217Z,9.17
2019-02-19T23:24:55.268Z,9.90
2019-02-19T23:27:24.300Z,10.20
2019-02-19T23:29:53.303Z,10.57
2019-02-19T23:32:22.356Z,10.60
2019-02-19T23:35:10.442Z,9.90
2019-02-19T23:37:39.655Z,9.60
2019-02-19T23:40:08.676Z,9.60
2019-02-19T23:42:38.093Z,10.37
2019-02-19T23:45:07.212Z,9.63
2019-02-19T23:47:36.277Z,10.70
2019-02-19T23:50:05.368Z,13.00
2019-02-19T23:52:34.452Z,12.50
2019-02-19T23:55:03.406Z,13.90
2019-02-19T23:57:31.952Z,10.17
